Clarksville, Maryland
Current Conditions -  °F | °C
As of 11:35 AM on Friday 19 Dec 2014 (Local Time) from KGAI Reporting Station
Overcast Overcast  
Wind Chill: 27°   Ceiling: 3000
Heat Index: 36°   Visibility: 10mi
Dew Point: 23°   Wind: 13mph
Humidity: 60%   Direction: 300°WNW
Pressure: 30.18"   Gusts: 17mph
Location:  39.21°N, 76.94°W
Report Text: KGAI 191635Z 30011G15KT 10SM OVC030 02/M05 A3018 RMK AO1
Loading
Personal Weather Stations






























Interactive Weather Map New forecast layout! Learn more

10-Day Weather Forecast

Advertisements
Track Severe Weather on mobile